createdAt,value
2018-12-14T00:02:31.223Z,23.16
2018-12-14T00:05:00.811Z,23.17
2018-12-14T00:07:30.290Z,23.13
2018-12-14T00:09:59.712Z,23.16
2018-12-14T00:12:29.173Z,23.14
2018-12-14T00:14:58.422Z,23.16
2018-12-14T00:17:27.741Z,23.13
2018-12-14T00:19:57.026Z,23.13
2018-12-14T00:22:26.508Z,23.17
2018-12-14T00:24:55.931Z,23.22
2018-12-14T00:27:25.487Z,23.16
2018-12-14T00:29:54.900Z,23.16
2018-12-14T00:32:24.152Z,23.12
2018-12-14T00:34:53.531Z,23.17
2018-12-14T00:37:22.822Z,23.11
2018-12-14T00:39:52.123Z,23.10
2018-12-14T00:42:21.552Z,23.12
2018-12-14T00:44:50.827Z,23.10
2018-12-14T00:47:20.235Z,23.10
2018-12-14T00:49:49.538Z,23.10
2018-12-14T00:52:18.939Z,23.12
2018-12-14T00:54:48.251Z,23.13
2018-12-14T00:57:17.657Z,23.15
2018-12-14T00:59:47.052Z,23.13
2018-12-14T01:02:21.318Z,23.12
2018-12-14T01:04:50.564Z,23.08
2018-12-14T01:07:19.831Z,23.07
2018-12-14T01:09:48.980Z,23.07
2018-12-14T01:12:18.503Z,23.11
2018-12-14T01:14:47.909Z,23.12
2018-12-14T01:17:17.332Z,23.08
2018-12-14T01:19:46.604Z,23.11
2018-12-14T01:22:15.931Z,23.09
2018-12-14T01:24:45.375Z,23.07
2018-12-14T01:27:14.802Z,23.08
2018-12-14T01:29:44.110Z,23.07
2018-12-14T01:32:13.448Z,23.09
2018-12-14T01:34:42.705Z,23.07
2018-12-14T01:37:12.003Z,23.09
2018-12-14T01:39:41.499Z,23.03
2018-12-14T01:42:10.922Z,23.05
2018-12-14T01:44:40.519Z,23.02
2018-12-14T01:47:09.843Z,23.01
2018-12-14T01:49:39.029Z,23.03
2018-12-14T01:52:08.524Z,23.07
2018-12-14T01:54:38.027Z,23.04
2018-12-14T01:57:07.345Z,23.04
2018-12-14T01:59:36.760Z,23.00
2018-12-14T02:02:06.054Z,23.00
2018-12-14T02:04:35.506Z,23.03
2018-12-14T02:07:04.959Z,22.99
2018-12-14T02:09:34.265Z,23.04
2018-12-14T02:12:03.478Z,23.05
2018-12-14T02:14:32.874Z,23.05
2018-12-14T02:17:32.911Z,23.05
2018-12-14T02:20:02.177Z,23.04
2018-12-14T02:22:31.622Z,23.02
2018-12-14T02:25:00.791Z,23.02
2018-12-14T02:27:30.100Z,23.01
2018-12-14T02:29:59.316Z,23.05
2018-12-14T02:32:28.592Z,22.98
2018-12-14T02:34:57.973Z,23.02
2018-12-14T02:37:27.297Z,23.02
2018-12-14T02:39:56.697Z,22.98
2018-12-14T02:42:25.999Z,23.02
2018-12-14T02:44:55.412Z,23.04
2018-12-14T02:47:24.706Z,23.03
2018-12-14T02:49:54.174Z,22.95
2018-12-14T02:52:23.456Z,22.97
2018-12-14T02:54:53.002Z,22.98
2018-12-14T02:57:22.427Z,22.93
2018-12-14T02:59:51.702Z,22.99
2018-12-14T03:02:21.060Z,22.97
2018-12-14T03:04:50.433Z,23.00
2018-12-14T03:07:19.643Z,22.95
2018-12-14T03:09:48.939Z,22.96
2018-12-14T03:12:18.420Z,22.95
2018-12-14T03:14:47.841Z,22.97
2018-12-14T03:17:17.491Z,22.91
2018-12-14T03:19:47.110Z,22.92
2018-12-14T03:22:16.816Z,22.89
2018-12-14T03:24:46.484Z,22.88
2018-12-14T03:27:15.793Z,22.93
2018-12-14T03:29:45.167Z,22.88
2018-12-14T03:32:14.682Z,22.94
2018-12-14T03:34:44.071Z,22.93
2018-12-14T03:37:13.284Z,22.90
2018-12-14T03:39:42.693Z,22.89
2018-12-14T03:42:12.293Z,22.89
2018-12-14T03:44:41.608Z,22.85
2018-12-14T03:47:11.116Z,22.88
2018-12-14T03:49:40.487Z,22.91
2018-12-14T03:52:09.906Z,22.87
2018-12-14T03:54:39.031Z,22.82
2018-12-14T03:57:08.319Z,22.86
2018-12-14T03:59:37.600Z,22.83
2018-12-14T04:02:07.003Z,22.81
2018-12-14T04:04:36.231Z,22.87
2018-12-14T04:07:05.421Z,22.84
2018-12-14T04:09:34.731Z,22.89
2018-12-14T04:12:04.128Z,22.82
2018-12-14T04:14:33.612Z,22.84
2018-12-14T04:17:02.960Z,22.82
2018-12-14T04:19:32.310Z,22.82
2018-12-14T04:22:01.633Z,22.80
2018-12-14T04:24:30.944Z,22.82
2018-12-14T04:27:00.236Z,22.86
2018-12-14T04:29:29.636Z,22.85
2018-12-14T04:31:59.152Z,22.80
2018-12-14T04:34:28.531Z,22.76
2018-12-14T04:36:57.761Z,22.77
2018-12-14T04:39:27.137Z,22.79
2018-12-14T04:41:56.360Z,22.79
2018-12-14T04:44:25.764Z,22.76
2018-12-14T04:46:55.328Z,22.77
2018-12-14T04:49:24.820Z,22.83
2018-12-14T04:51:54.192Z,22.80
2018-12-14T04:54:23.463Z,22.78
2018-12-14T04:56:53.002Z,22.78
2018-12-14T04:59:22.606Z,22.80
2018-12-14T05:01:51.879Z,22.78
2018-12-14T05:04:21.293Z,22.79
2018-12-14T05:06:50.693Z,22.76
2018-12-14T05:09:20.092Z,22.78
2018-12-14T05:11:49.638Z,22.96
2018-12-14T05:14:19.277Z,22.91
2018-12-14T05:16:48.404Z,22.88
2018-12-14T05:19:17.927Z,22.88
2018-12-14T05:21:47.392Z,22.84
2018-12-14T05:24:17.203Z,22.85
2018-12-14T05:26:46.634Z,22.94
2018-12-14T05:29:15.948Z,22.94
2018-12-14T05:31:45.010Z,22.89
2018-12-14T05:34:14.320Z,22.90
2018-12-14T05:36:43.840Z,22.92
2018-12-14T05:39:13.187Z,22.98
2018-12-14T05:41:42.684Z,23.00
2018-12-14T05:44:12.052Z,23.06
2018-12-14T05:46:41.332Z,23.05
2018-12-14T05:49:10.672Z,23.09
2018-12-14T05:51:40.012Z,23.04
2018-12-14T05:54:09.904Z,23.08
2018-12-14T05:56:39.582Z,23.13
2018-12-14T05:59:09.060Z,23.17
2018-12-14T06:01:38.514Z,23.11
2018-12-14T06:04:08.366Z,23.13
2018-12-14T06:06:37.744Z,23.05
2018-12-14T06:09:08.099Z,23.20
2018-12-14T06:11:37.724Z,23.44
2018-12-14T06:14:08.188Z,23.61
2018-12-14T06:16:37.733Z,23.49
2018-12-14T06:19:07.107Z,23.31
2018-12-14T06:21:36.524Z,23.36
2018-12-14T06:24:05.801Z,23.33
2018-12-14T06:26:35.170Z,23.38
2018-12-14T06:29:04.613Z,23.38
2018-12-14T06:31:33.895Z,23.38
2018-12-14T06:34:03.207Z,23.38
2018-12-14T06:36:32.411Z,23.29
2018-12-14T06:39:02.231Z,23.39
2018-12-14T06:41:31.510Z,23.45
2018-12-14T06:44:00.842Z,23.37
2018-12-14T06:46:30.094Z,23.35
2018-12-14T06:48:59.318Z,23.31
2018-12-14T06:51:28.618Z,23.31
2018-12-14T06:53:57.927Z,23.31
2018-12-14T06:56:27.200Z,23.35
2018-12-14T06:58:56.308Z,23.29
2018-12-14T07:01:25.508Z,23.28
2018-12-14T07:03:54.821Z,23.34
2018-12-14T07:06:24.226Z,23.34
2018-12-14T07:08:53.615Z,23.26
2018-12-14T07:11:23.007Z,23.30
2018-12-14T07:13:52.431Z,23.27
2018-12-14T07:16:21.915Z,23.32
2018-12-14T07:18:51.341Z,23.26
2018-12-14T07:21:20.540Z,23.32
2018-12-14T07:23:49.842Z,23.29
2018-12-14T07:26:19.248Z,23.29
2018-12-14T07:28:49.099Z,23.32
2018-12-14T07:31:18.351Z,23.29
2018-12-14T07:33:47.747Z,23.35
2018-12-14T07:36:17.052Z,23.34
2018-12-14T07:38:48.224Z,23.32
2018-12-14T07:41:17.491Z,23.28
2018-12-14T07:43:46.820Z,23.33
2018-12-14T07:46:16.408Z,23.28
2018-12-14T07:48:45.856Z,23.26
2018-12-14T07:51:15.119Z,23.26
2018-12-14T07:53:44.430Z,23.23
2018-12-14T07:56:13.715Z,23.24
2018-12-14T07:58:43.097Z,23.23
2018-12-14T08:01:12.358Z,23.22
2018-12-14T08:03:41.815Z,23.30
2018-12-14T08:06:11.132Z,23.25
2018-12-14T08:08:40.560Z,23.27
2018-12-14T08:11:09.847Z,23.25
2018-12-14T08:13:39.154Z,23.28
2018-12-14T08:16:08.447Z,23.07
2018-12-14T08:18:37.752Z,22.58
2018-12-14T08:21:07.061Z,22.64
2018-12-14T08:23:36.458Z,22.78
2018-12-14T08:26:05.834Z,22.87
2018-12-14T08:28:35.152Z,22.84
2018-12-14T08:31:04.540Z,22.83
2018-12-14T08:33:33.870Z,22.95
2018-12-14T08:36:03.055Z,22.97
2018-12-14T08:38:32.355Z,22.95
2018-12-14T08:41:01.844Z,23.05
2018-12-14T08:43:31.143Z,23.01
2018-12-14T08:46:00.554Z,23.00
2018-12-14T08:48:30.024Z,23.03
2018-12-14T08:50:59.377Z,23.02
2018-12-14T08:53:28.945Z,22.91
2018-12-14T08:55:58.437Z,22.91
2018-12-14T08:58:27.788Z,23.01
2018-12-14T09:00:57.191Z,23.03
2018-12-14T09:03:26.596Z,23.10
2018-12-14T09:05:55.903Z,22.99
2018-12-14T09:08:25.285Z,22.98
2018-12-14T09:10:54.506Z,23.06
2018-12-14T09:13:24.265Z,23.11
2018-12-14T09:15:53.611Z,23.13
2018-12-14T09:18:22.703Z,23.13
2018-12-14T09:20:52.011Z,23.08
2018-12-14T09:23:21.424Z,23.12
2018-12-14T09:25:50.738Z,23.08
2018-12-14T09:28:20.015Z,23.08
2018-12-14T09:30:49.332Z,23.06
2018-12-14T09:33:18.815Z,23.07
2018-12-14T09:35:48.219Z,23.14
2018-12-14T09:38:17.536Z,23.06
2018-12-14T09:40:46.925Z,23.10
2018-12-14T09:43:16.246Z,23.15
2018-12-14T09:45:45.425Z,23.20
2018-12-14T09:48:14.645Z,23.18
2018-12-14T09:50:43.934Z,23.15
2018-12-14T09:53:14.332Z,23.04
2018-12-14T09:55:43.459Z,23.17
2018-12-14T09:58:12.663Z,23.20
2018-12-14T10:00:41.871Z,23.19
2018-12-14T10:03:11.364Z,23.20
2018-12-14T10:05:40.869Z,23.20
2018-12-14T10:08:10.299Z,23.18
2018-12-14T10:10:39.952Z,23.19
2018-12-14T10:13:09.531Z,23.18
2018-12-14T10:15:38.872Z,23.17
2018-12-14T10:18:08.186Z,23.10
2018-12-14T10:20:37.392Z,23.09
2018-12-14T10:23:06.686Z,23.10
2018-12-14T10:25:36.107Z,23.06
2018-12-14T10:28:05.414Z,23.12
2018-12-14T10:30:34.706Z,23.09
2018-12-14T10:33:03.900Z,23.10
2018-12-14T10:35:33.111Z,23.13
2018-12-14T10:38:02.397Z,23.15
2018-12-14T10:40:31.894Z,23.09
2018-12-14T10:43:01.296Z,23.21
2018-12-14T10:45:30.655Z,23.12
2018-12-14T10:47:59.918Z,23.13
2018-12-14T10:50:38.742Z,23.17
2018-12-14T10:53:04.653Z,23.17
2018-12-14T10:55:34.161Z,23.09
2018-12-14T10:58:03.729Z,23.15
2018-12-14T11:00:38.036Z,23.09
2018-12-14T11:03:07.417Z,23.13
2018-12-14T11:05:36.700Z,23.11
2018-12-14T11:08:05.986Z,23.14
2018-12-14T11:10:35.091Z,23.13
2018-12-14T11:13:04.303Z,23.15
2018-12-14T11:15:33.601Z,23.12
2018-12-14T11:18:03.082Z,23.11
2018-12-14T11:20:32.488Z,23.06
2018-12-14T11:23:01.787Z,23.06
2018-12-14T11:25:31.203Z,23.06
2018-12-14T11:28:00.499Z,23.04
2018-12-14T11:30:29.806Z,23.06
2018-12-14T11:32:59.212Z,23.04
2018-12-14T11:35:28.520Z,23.08
2018-12-14T11:37:57.825Z,23.04
2018-12-14T11:40:27.308Z,23.07
2018-12-14T11:42:56.603Z,23.04
2018-12-14T11:45:25.926Z,22.94
2018-12-14T11:47:55.329Z,23.00
2018-12-14T11:50:24.729Z,22.93
2018-12-14T11:52:54.042Z,23.02
2018-12-14T11:55:23.432Z,23.02
2018-12-14T11:57:52.923Z,23.00
2018-12-14T12:00:22.376Z,23.01
2018-12-14T12:02:51.648Z,23.01
2018-12-14T12:05:20.947Z,22.95
2018-12-14T12:07:50.503Z,22.96
2018-12-14T12:10:19.768Z,23.03
2018-12-14T12:12:49.260Z,23.01
2018-12-14T12:15:18.682Z,22.95
2018-12-14T12:17:49.526Z,22.99
2018-12-14T12:20:19.168Z,23.06
2018-12-14T12:22:48.668Z,23.01
2018-12-14T12:25:18.007Z,22.96
2018-12-14T12:27:47.219Z,22.99
2018-12-14T12:30:16.623Z,22.99
2018-12-14T12:32:46.028Z,22.99
2018-12-14T12:35:15.236Z,23.02
2018-12-14T12:37:44.532Z,22.93
2018-12-14T12:40:13.924Z,22.95
2018-12-14T12:42:43.414Z,22.96
2018-12-14T12:45:12.669Z,22.96
2018-12-14T12:47:41.938Z,22.97
2018-12-14T12:50:11.287Z,22.94
2018-12-14T12:52:40.636Z,23.00
2018-12-14T12:55:09.941Z,23.01
2018-12-14T12:57:39.255Z,22.98
2018-12-14T13:00:08.895Z,22.94
2018-12-14T13:02:38.037Z,23.06
2018-12-14T13:05:07.165Z,23.17
2018-12-14T13:07:36.445Z,23.37
2018-12-14T13:10:05.747Z,23.43
2018-12-14T13:12:35.052Z,23.35
2018-12-14T13:15:04.660Z,23.34
2018-12-14T13:17:34.068Z,23.20
2018-12-14T13:20:03.469Z,23.18
2018-12-14T13:22:32.668Z,23.21
2018-12-14T13:25:01.996Z,23.11
2018-12-14T13:27:31.271Z,23.10
2018-12-14T13:30:00.764Z,23.19
2018-12-14T13:32:29.983Z,23.20
2018-12-14T13:34:59.371Z,23.28
2018-12-14T13:37:28.771Z,23.28
2018-12-14T13:39:57.903Z,23.18
2018-12-14T13:42:27.286Z,23.22
2018-12-14T13:44:56.835Z,23.18
2018-12-14T13:47:26.292Z,23.08
2018-12-14T13:49:55.686Z,23.10
2018-12-14T13:52:25.044Z,23.17
2018-12-14T13:54:54.400Z,23.07
2018-12-14T13:57:23.604Z,23.13
2018-12-14T13:59:52.913Z,23.09
2018-12-14T14:02:22.214Z,23.16
2018-12-14T14:04:51.502Z,23.22
2018-12-14T14:07:21.012Z,23.16
2018-12-14T14:09:50.406Z,23.05
2018-12-14T14:12:19.743Z,23.07
2018-12-14T14:14:52.962Z,22.99
2018-12-14T14:17:20.474Z,23.06
2018-12-14T14:19:50.128Z,23.06
2018-12-14T14:22:19.656Z,23.04
2018-12-14T14:24:49.181Z,22.91
2018-12-14T14:27:18.397Z,22.87
2018-12-14T14:29:47.690Z,22.92
2018-12-14T14:32:17.107Z,22.87
2018-12-14T14:34:46.312Z,22.85
2018-12-14T14:37:15.593Z,22.91
2018-12-14T14:39:44.797Z,23.05
2018-12-14T14:42:14.101Z,23.06
2018-12-14T14:44:43.579Z,23.07
2018-12-14T14:47:12.864Z,23.11
2018-12-14T14:49:42.187Z,23.16
2018-12-14T14:52:11.604Z,23.18
2018-12-14T14:54:41.012Z,23.22
2018-12-14T14:57:10.307Z,23.24
2018-12-14T14:59:39.625Z,23.24
2018-12-14T15:02:09.017Z,23.15
2018-12-14T15:04:38.508Z,23.04
2018-12-14T15:07:07.920Z,22.98
2018-12-14T15:09:37.115Z,23.02
2018-12-14T15:12:06.423Z,23.12
2018-12-14T15:14:35.720Z,23.27
2018-12-14T15:17:05.131Z,23.47
2018-12-14T15:19:34.535Z,23.58
2018-12-14T15:22:04.729Z,23.67
2018-12-14T15:24:34.368Z,23.71
2018-12-14T15:27:04.484Z,23.79
2018-12-14T15:29:33.974Z,23.79
2018-12-14T15:32:03.391Z,23.79
2018-12-14T15:34:32.592Z,23.76
2018-12-14T15:37:01.796Z,23.75
2018-12-14T15:39:31.088Z,23.66
2018-12-14T15:42:00.401Z,23.61
2018-12-14T15:44:29.805Z,23.68
2018-12-14T15:46:59.191Z,23.74
2018-12-14T15:49:28.507Z,23.62
2018-12-14T15:51:57.914Z,23.57
2018-12-14T15:54:27.323Z,23.56
2018-12-14T15:56:56.624Z,23.51
2018-12-14T15:59:26.015Z,23.52
2018-12-14T16:01:55.315Z,23.46
2018-12-14T16:04:24.629Z,23.45
2018-12-14T16:06:54.201Z,23.51
2018-12-14T16:09:23.511Z,23.46
2018-12-14T16:11:52.925Z,23.51
2018-12-14T16:14:22.263Z,23.52
2018-12-14T16:16:51.648Z,23.58
2018-12-14T16:19:21.019Z,23.61
2018-12-14T16:21:50.535Z,23.48
2018-12-14T16:24:19.836Z,23.53
2018-12-14T16:26:49.233Z,23.48
2018-12-14T16:29:18.645Z,23.45
2018-12-14T16:31:47.968Z,23.45
2018-12-14T16:34:17.363Z,23.50
2018-12-14T16:36:46.668Z,23.41
2018-12-14T16:39:16.470Z,23.43
2018-12-14T16:41:45.790Z,23.46
2018-12-14T16:44:15.074Z,23.44
2018-12-14T16:46:44.398Z,23.39
2018-12-14T16:49:13.563Z,23.41
2018-12-14T16:51:42.698Z,23.37
2018-12-14T16:54:12.168Z,23.32
2018-12-14T16:56:41.595Z,23.35
2018-12-14T16:59:10.979Z,23.32
2018-12-14T17:01:40.280Z,23.40
2018-12-14T17:04:09.574Z,23.24
2018-12-14T17:06:38.791Z,23.27
2018-12-14T17:09:08.091Z,23.25
2018-12-14T17:11:37.194Z,23.30
2018-12-14T17:14:06.519Z,23.26
2018-12-14T17:16:35.892Z,23.31
2018-12-14T17:19:05.281Z,23.24
2018-12-14T17:21:34.584Z,23.26
2018-12-14T17:24:03.883Z,23.31
2018-12-14T17:26:33.196Z,23.28
2018-12-14T17:29:02.647Z,23.18
2018-12-14T17:31:32.009Z,23.18
2018-12-14T17:34:01.308Z,23.25
2018-12-14T17:36:30.657Z,23.27
2018-12-14T17:38:59.933Z,23.22
2018-12-14T17:41:29.403Z,23.27
2018-12-14T17:43:58.543Z,23.30
2018-12-14T17:46:28.195Z,23.22
2018-12-14T17:48:57.434Z,23.23
2018-12-14T17:51:26.864Z,23.20
2018-12-14T17:53:56.244Z,23.16
2018-12-14T17:56:25.653Z,23.05
2018-12-14T17:58:55.049Z,23.06
2018-12-14T18:01:24.296Z,23.15
2018-12-14T18:03:53.653Z,23.19
2018-12-14T18:06:22.944Z,23.12
2018-12-14T18:08:52.403Z,23.04
2018-12-14T18:11:21.687Z,23.00
2018-12-14T18:13:50.867Z,23.06
2018-12-14T18:16:20.267Z,23.10
2018-12-14T18:18:49.547Z,23.03
2018-12-14T18:21:19.017Z,22.97
2018-12-14T18:23:48.266Z,23.02
2018-12-14T18:26:17.503Z,23.10
2018-12-14T18:28:46.856Z,23.02
2018-12-14T18:31:16.219Z,23.05
2018-12-14T18:33:45.524Z,23.04
2018-12-14T18:36:14.815Z,23.07
2018-12-14T18:38:43.902Z,23.01
2018-12-14T18:41:13.212Z,23.02
2018-12-14T18:43:42.328Z,23.16
2018-12-14T18:46:11.512Z,23.14
2018-12-14T18:48:40.783Z,23.05
2018-12-14T18:51:10.248Z,23.08
2018-12-14T18:53:41.618Z,23.08
2018-12-14T18:56:10.747Z,23.06
2018-12-14T18:58:39.907Z,22.97
2018-12-14T19:01:09.192Z,23.00
2018-12-14T19:03:38.623Z,23.02
2018-12-14T19:06:07.957Z,23.01
2018-12-14T19:08:37.255Z,23.00
2018-12-14T19:11:36.979Z,23.09
2018-12-14T19:14:06.334Z,23.17
2018-12-14T19:16:35.738Z,23.09
2018-12-14T19:19:04.951Z,23.01
2018-12-14T19:21:34.336Z,23.03
2018-12-14T19:24:03.669Z,23.02
2018-12-14T19:26:32.854Z,23.17
2018-12-14T19:29:02.232Z,23.11
2018-12-14T19:31:31.350Z,23.09
2018-12-14T19:34:00.653Z,23.04
2018-12-14T19:36:30.893Z,23.03
2018-12-14T19:39:00.377Z,23.02
2018-12-14T19:41:29.860Z,23.00
2018-12-14T19:43:58.984Z,22.99
2018-12-14T19:46:28.364Z,23.00
2018-12-14T19:48:57.496Z,23.03
2018-12-14T19:51:26.869Z,23.11
2018-12-14T19:53:56.199Z,23.19
2018-12-14T19:56:25.447Z,23.10
2018-12-14T19:58:54.785Z,23.02
2018-12-14T20:01:24.040Z,23.00
2018-12-14T20:03:53.271Z,23.08
2018-12-14T20:06:22.704Z,23.12
2018-12-14T20:08:51.935Z,23.12
2018-12-14T20:11:20.883Z,23.21
2018-12-14T20:13:50.280Z,23.49
2018-12-14T20:16:19.774Z,23.83
2018-12-14T20:18:49.290Z,23.98
2018-12-14T20:21:18.688Z,23.92
2018-12-14T20:23:47.900Z,23.89
2018-12-14T20:26:17.178Z,23.75
2018-12-14T20:28:46.503Z,23.74
2018-12-14T20:31:15.895Z,23.68
2018-12-14T20:33:45.212Z,23.50
2018-12-14T20:36:14.547Z,23.57
2018-12-14T20:38:43.900Z,23.54
2018-12-14T20:41:13.327Z,23.48
2018-12-14T20:43:42.610Z,23.38
2018-12-14T20:46:12.009Z,23.38
2018-12-14T20:48:41.510Z,23.29
2018-12-14T20:51:10.933Z,23.28
2018-12-14T20:53:40.250Z,23.39
2018-12-14T20:56:09.723Z,23.40
2018-12-14T20:58:39.123Z,23.39
2018-12-14T21:01:08.436Z,23.35
2018-12-14T21:03:37.763Z,23.29
2018-12-14T21:06:07.130Z,23.33
2018-12-14T21:08:36.339Z,23.35
2018-12-14T21:11:05.738Z,23.33
2018-12-14T21:13:35.147Z,23.28
2018-12-14T21:16:04.363Z,23.30
2018-12-14T21:18:33.640Z,23.41
2018-12-14T21:21:02.787Z,23.31
2018-12-14T21:23:32.046Z,23.30
2018-12-14T21:26:01.252Z,23.32
2018-12-14T21:28:30.446Z,23.24
2018-12-14T21:30:59.831Z,23.30
2018-12-14T21:33:29.256Z,23.28
2018-12-14T21:35:58.632Z,23.23
2018-12-14T21:38:27.887Z,23.26
2018-12-14T21:40:57.251Z,23.21
2018-12-14T21:43:26.556Z,23.25
2018-12-14T21:45:55.865Z,23.19
2018-12-14T21:48:25.173Z,23.22
2018-12-14T21:50:54.656Z,23.29
2018-12-14T21:53:23.960Z,23.17
2018-12-14T21:55:53.268Z,23.22
2018-12-14T21:58:22.666Z,23.20
2018-12-14T22:00:51.975Z,23.12
2018-12-14T22:03:21.359Z,23.15
2018-12-14T22:05:50.587Z,23.22
2018-12-14T22:08:20.074Z,23.20
2018-12-14T22:10:49.587Z,23.14
2018-12-14T22:13:18.881Z,23.20
2018-12-14T22:15:48.182Z,23.20
2018-12-14T22:18:17.487Z,23.17
2018-12-14T22:20:46.788Z,23.15
2018-12-14T22:23:16.007Z,23.25
2018-12-14T22:25:45.207Z,23.27
2018-12-14T22:28:14.689Z,23.24
2018-12-14T22:30:43.984Z,23.28
2018-12-14T22:33:13.387Z,23.12
2018-12-14T22:35:42.782Z,23.17
2018-12-14T22:38:12.102Z,23.18
2018-12-14T22:40:41.512Z,23.16
2018-12-14T22:43:10.899Z,23.20
2018-12-14T22:45:40.120Z,23.21
2018-12-14T22:48:09.514Z,23.19
2018-12-14T22:50:38.829Z,23.16
2018-12-14T22:53:08.218Z,23.12
2018-12-14T22:55:37.417Z,23.20
2018-12-14T22:58:06.616Z,23.05
2018-12-14T23:00:39.979Z,23.07
2018-12-14T23:03:09.217Z,23.03
2018-12-14T23:05:38.620Z,23.04
2018-12-14T23:08:07.919Z,23.08
2018-12-14T23:10:37.165Z,23.05
2018-12-14T23:13:06.721Z,23.16
2018-12-14T23:15:36.137Z,23.11
2018-12-14T23:18:05.623Z,23.08
2018-12-14T23:20:34.927Z,23.06
2018-12-14T23:23:04.230Z,23.01
2018-12-14T23:25:33.645Z,23.04
2018-12-14T23:28:03.096Z,23.00
2018-12-14T23:30:32.143Z,23.02
2018-12-14T23:33:01.427Z,22.99
2018-12-14T23:35:30.645Z,22.95
2018-12-14T23:38:00.035Z,22.85
2018-12-14T23:40:29.245Z,22.96
2018-12-14T23:42:58.542Z,22.99
2018-12-14T23:45:27.740Z,23.07
2018-12-14T23:47:56.943Z,23.01
2018-12-14T23:50:26.342Z,22.90
2018-12-14T23:52:55.648Z,22.95
2018-12-14T23:55:25.068Z,22.86
2018-12-14T23:57:54.442Z,22.81
